createdAt,value
2019-03-06T00:01:35.721Z,10.60
2019-03-06T00:04:02.567Z,10.60
2019-03-06T00:06:29.184Z,10.50
2019-03-06T00:08:56.030Z,10.60
2019-03-06T00:11:22.611Z,10.60
2019-03-06T00:13:49.323Z,10.50
2019-03-06T00:16:16.398Z,10.50
2019-03-06T00:18:45.561Z,10.50
2019-03-06T00:21:12.285Z,10.30
2019-03-06T00:23:41.163Z,10.50
2019-03-06T00:26:07.617Z,10.50
2019-03-06T00:28:34.329Z,10.50
2019-03-06T00:31:01.000Z,10.50
2019-03-06T00:33:27.642Z,10.50
2019-03-06T00:35:54.890Z,10.50
2019-03-06T00:38:21.670Z,10.50
2019-03-06T00:41:08.474Z,10.50
2019-03-06T00:43:36.935Z,10.50
2019-03-06T00:46:03.661Z,10.50
2019-03-06T00:48:30.423Z,10.50
2019-03-06T00:50:57.047Z,10.50
2019-03-06T00:53:23.626Z,10.50
2019-03-06T00:55:50.199Z,10.50
2019-03-06T00:58:16.968Z,10.50
2019-03-06T01:00:43.573Z,10.50
2019-03-06T01:03:10.557Z,10.50
2019-03-06T01:05:39.116Z,10.50
2019-03-06T01:08:05.695Z,10.50
2019-03-06T01:10:32.246Z,10.50
2019-03-06T01:12:58.802Z,10.50
2019-03-06T01:15:25.480Z,10.50
2019-03-06T01:17:52.260Z,10.50
2019-03-06T01:20:19.302Z,10.50
2019-03-06T01:22:45.876Z,10.50
2019-03-06T01:25:12.490Z,10.50
2019-03-06T01:27:39.114Z,10.50
2019-03-06T01:30:05.835Z,10.50
2019-03-06T01:32:32.474Z,10.50
2019-03-06T01:35:17.268Z,10.50
2019-03-06T01:38:01.868Z,10.50
2019-03-06T01:40:39.420Z,10.50
2019-03-06T01:43:11.096Z,10.50
2019-03-06T01:45:37.760Z,10.50
2019-03-06T01:48:04.474Z,10.50
2019-03-06T01:50:31.102Z,10.50
2019-03-06T01:52:58.177Z,10.50
2019-03-06T01:55:24.774Z,10.50
2019-03-06T01:57:51.707Z,10.50
2019-03-06T02:00:18.299Z,10.50
2019-03-06T02:02:45.200Z,10.60
2019-03-06T02:05:11.739Z,10.50
2019-03-06T02:10:17.353Z,10.50
2019-03-06T02:12:43.881Z,10.30
2019-03-06T02:15:10.436Z,10.60
2019-03-06T02:17:37.373Z,10.50
2019-03-06T02:20:04.041Z,10.50
2019-03-06T02:22:30.639Z,10.50
2019-03-06T02:24:57.216Z,10.50
2019-03-06T02:27:24.090Z,10.50
2019-03-06T02:29:50.712Z,10.50
2019-03-06T02:32:17.480Z,10.60
2019-03-06T02:34:44.093Z,10.50
2019-03-06T02:37:10.941Z,10.50
2019-03-06T02:39:37.553Z,10.60
2019-03-06T02:42:04.132Z,10.50
2019-03-06T02:44:31.205Z,10.60
2019-03-06T02:46:59.060Z,10.50
2019-03-06T02:49:25.631Z,10.50
2019-03-06T02:51:52.311Z,10.50
2019-03-06T02:54:19.468Z,10.60
2019-03-06T02:56:46.084Z,10.60
2019-03-06T02:59:44.430Z,10.50
2019-03-06T03:02:39.819Z,10.60
2019-03-06T03:05:14.755Z,10.60
2019-03-06T03:07:41.391Z,10.50
2019-03-06T03:10:08.430Z,10.50
2019-03-06T03:12:35.385Z,10.60
2019-03-06T03:15:01.965Z,10.50
2019-03-06T03:17:29.217Z,10.60
2019-03-06T03:19:57.804Z,10.60
2019-03-06T03:22:30.218Z,10.50
2019-03-06T03:24:56.870Z,10.60
2019-03-06T03:27:23.435Z,10.50
2019-03-06T03:29:50.463Z,10.50
2019-03-06T03:32:17.270Z,10.60
2019-03-06T03:34:45.695Z,10.60
2019-03-06T03:37:12.631Z,10.50
2019-03-06T03:39:39.563Z,10.60
2019-03-06T03:42:06.130Z,10.50
2019-03-06T03:44:32.801Z,10.50
2019-03-06T03:46:59.715Z,10.50
2019-03-06T03:49:27.881Z,10.50
2019-03-06T03:51:54.664Z,10.50
2019-03-06T03:54:21.254Z,10.50
2019-03-06T03:56:47.858Z,10.50
2019-03-06T03:59:16.035Z,10.50
2019-03-06T04:01:43.254Z,10.50
2019-03-06T04:04:09.810Z,10.50
2019-03-06T04:06:37.530Z,10.50
2019-03-06T04:09:04.667Z,10.50
2019-03-06T04:11:31.247Z,10.50
2019-03-06T04:13:57.961Z,10.50
2019-03-06T04:16:24.513Z,10.50
2019-03-06T04:18:51.095Z,10.50
2019-03-06T04:21:17.765Z,10.50
2019-03-06T04:23:44.346Z,10.50
2019-03-06T04:26:12.816Z,10.50
2019-03-06T04:28:39.532Z,10.50
2019-03-06T04:31:06.242Z,10.50
2019-03-06T04:33:32.910Z,10.50
2019-03-06T04:35:59.550Z,10.50
2019-03-06T04:38:26.183Z,10.50
2019-03-06T04:40:52.793Z,10.50
2019-03-06T04:43:19.727Z,10.50
2019-03-06T04:45:48.228Z,10.50
2019-03-06T04:48:14.867Z,10.50
2019-03-06T04:50:43.259Z,10.50
2019-03-06T04:53:09.859Z,10.10
2019-03-06T04:55:36.466Z,10.50
2019-03-06T04:58:03.154Z,10.50
2019-03-06T05:00:29.911Z,10.50
2019-03-06T05:02:56.772Z,10.50
2019-03-06T05:05:23.365Z,10.50
2019-03-06T05:07:50.035Z,10.50
2019-03-06T05:10:16.841Z,10.50
2019-03-06T05:12:43.735Z,10.50
2019-03-06T05:15:10.462Z,10.50
2019-03-06T05:18:08.737Z,10.50
2019-03-06T05:20:35.302Z,10.50
2019-03-06T05:23:03.166Z,10.50
2019-03-06T05:25:30.049Z,10.50
2019-03-06T05:27:56.888Z,10.40
2019-03-06T05:30:24.844Z,10.50
2019-03-06T05:32:51.403Z,10.50
2019-03-06T05:35:17.997Z,10.40
2019-03-06T05:37:44.854Z,10.40
2019-03-06T05:40:11.444Z,10.40
2019-03-06T05:42:38.063Z,10.40
2019-03-06T05:45:06.993Z,10.40
2019-03-06T05:47:33.953Z,10.40
2019-03-06T05:50:00.988Z,10.40
2019-03-06T05:52:27.848Z,10.40
2019-03-06T05:54:54.906Z,10.40
2019-03-06T05:57:21.940Z,10.40
2019-03-06T05:59:48.833Z,10.10
2019-03-06T06:02:15.400Z,10.40
2019-03-06T06:04:42.381Z,10.40
2019-03-06T06:07:09.271Z,10.40
2019-03-06T06:09:35.892Z,10.40
2019-03-06T06:12:02.610Z,10.40
2019-03-06T06:14:29.770Z,10.40
2019-03-06T06:16:56.478Z,10.40
2019-03-06T06:19:23.111Z,10.40
2019-03-06T06:22:19.292Z,10.40
2019-03-06T06:24:45.892Z,10.40
2019-03-06T06:27:12.520Z,10.40
2019-03-06T06:29:39.607Z,10.40
2019-03-06T06:32:06.209Z,10.40
2019-03-06T06:34:32.825Z,10.40
2019-03-06T06:36:59.609Z,10.40
2019-03-06T06:39:26.746Z,10.30
2019-03-06T06:41:53.702Z,10.30
2019-03-06T06:44:20.355Z,10.40
2019-03-06T06:46:46.921Z,10.30
2019-03-06T06:49:13.614Z,10.30
2019-03-06T06:51:40.240Z,10.30
2019-03-06T06:54:06.841Z,10.30
2019-03-06T06:56:33.823Z,10.30
2019-03-06T06:59:00.429Z,10.30
2019-03-06T07:01:37.118Z,10.30
2019-03-06T07:04:11.992Z,10.30
2019-03-06T07:06:47.546Z,10.30
2019-03-06T07:09:51.889Z,10.30
2019-03-06T07:12:27.821Z,10.30
2019-03-06T07:15:11.753Z,10.30
2019-03-06T07:17:43.751Z,10.30
2019-03-06T07:20:42.116Z,10.30
2019-03-06T07:23:31.622Z,10.30
2019-03-06T07:26:18.187Z,10.30
2019-03-06T07:29:01.391Z,10.30
2019-03-06T07:31:53.359Z,10.30
2019-03-06T07:34:38.286Z,10.30
2019-03-06T07:37:14.857Z,10.30
2019-03-06T07:40:00.927Z,10.30
2019-03-06T07:42:56.132Z,10.30
2019-03-06T07:45:42.213Z,10.30
2019-03-06T07:48:18.561Z,10.30
2019-03-06T07:51:16.792Z,10.30
2019-03-06T07:54:08.886Z,10.30
2019-03-06T07:56:47.268Z,10.30
2019-03-06T07:59:13.893Z,10.30
2019-03-06T08:01:40.532Z,10.30
2019-03-06T08:04:07.165Z,10.30
2019-03-06T08:06:33.825Z,10.40
2019-03-06T08:09:00.411Z,10.40
2019-03-06T08:11:33.086Z,10.40
2019-03-06T08:14:22.467Z,10.40
2019-03-06T08:16:55.637Z,10.40
2019-03-06T08:19:52.808Z,10.40
2019-03-06T08:22:42.064Z,10.40
2019-03-06T08:25:40.217Z,10.40
2019-03-06T08:28:07.120Z,10.40
2019-03-06T08:30:36.692Z,10.40
2019-03-06T08:33:03.329Z,10.40
2019-03-06T08:35:29.969Z,10.40
2019-03-06T08:37:56.713Z,10.40
2019-03-06T08:40:23.337Z,10.40
2019-03-06T08:42:49.956Z,10.40
2019-03-06T08:45:18.906Z,10.40
2019-03-06T08:47:55.840Z,10.40
2019-03-06T08:50:31.346Z,10.40
2019-03-06T08:53:29.529Z,10.40
2019-03-06T08:56:16.088Z,10.30
2019-03-06T08:59:00.676Z,10.40
2019-03-06T09:02:00.702Z,10.40
2019-03-06T09:04:50.244Z,10.50
2019-03-06T09:07:36.553Z,10.50
2019-03-06T09:10:33.011Z,10.50
2019-03-06T09:13:08.772Z,10.50
2019-03-06T09:15:58.907Z,10.50
2019-03-06T09:18:45.286Z,10.50
2019-03-06T09:21:20.159Z,10.50
2019-03-06T09:24:09.545Z,10.50
2019-03-06T09:26:54.395Z,10.50
2019-03-06T09:29:50.197Z,10.50
2019-03-06T09:32:31.755Z,10.50
2019-03-06T09:35:12.747Z,10.50
2019-03-06T09:38:11.086Z,10.50
2019-03-06T09:40:48.070Z,10.50
2019-03-06T09:43:37.753Z,10.50
2019-03-06T09:46:23.814Z,10.50
2019-03-06T09:49:11.726Z,10.60
2019-03-06T09:52:04.755Z,10.60
2019-03-06T09:54:51.184Z,10.60
2019-03-06T09:57:42.245Z,10.60
2019-03-06T10:00:34.989Z,10.60
2019-03-06T10:03:27.179Z,10.60
2019-03-06T10:06:12.335Z,10.60
2019-03-06T10:08:46.240Z,10.60
2019-03-06T10:11:30.953Z,10.60
2019-03-06T10:14:15.778Z,10.60
2019-03-06T10:16:50.467Z,10.60
2019-03-06T10:19:39.713Z,10.70
2019-03-06T10:22:06.337Z,10.70
2019-03-06T10:24:34.835Z,10.70
2019-03-06T10:27:01.479Z,10.70
2019-03-06T10:29:28.445Z,10.70
2019-03-06T10:31:55.223Z,10.70
2019-03-06T10:34:22.413Z,10.70
2019-03-06T10:36:49.081Z,10.70
2019-03-06T10:39:15.683Z,10.70
2019-03-06T10:41:42.360Z,10.70
2019-03-06T10:44:11.048Z,10.70
2019-03-06T10:46:37.690Z,10.80
2019-03-06T10:49:04.288Z,10.80
2019-03-06T10:51:31.183Z,10.80
2019-03-06T10:53:57.900Z,10.80
2019-03-06T10:56:24.631Z,10.80
2019-03-06T10:58:51.721Z,10.80
2019-03-06T11:01:18.905Z,10.80
2019-03-06T11:06:25.152Z,11.00
2019-03-06T11:08:51.798Z,10.80
2019-03-06T11:11:18.590Z,10.90
2019-03-06T11:13:45.289Z,10.90
2019-03-06T11:16:12.070Z,10.90
2019-03-06T11:18:40.094Z,10.90
2019-03-06T11:21:06.778Z,10.90
2019-03-06T11:23:33.379Z,10.90
2019-03-06T11:26:01.910Z,10.90
2019-03-06T11:28:28.434Z,10.90
2019-03-06T11:30:55.316Z,10.90
2019-03-06T11:33:21.980Z,11.00
2019-03-06T11:35:48.575Z,11.00
2019-03-06T11:38:15.341Z,11.00
2019-03-06T11:40:43.150Z,11.00
2019-03-06T11:43:09.826Z,11.00
2019-03-06T11:45:36.773Z,11.00
2019-03-06T11:48:03.409Z,11.00
2019-03-06T11:50:30.401Z,11.00
2019-03-06T11:52:57.547Z,11.00
2019-03-06T11:55:25.919Z,11.00
2019-03-06T11:57:52.526Z,11.00
2019-03-06T12:00:27.501Z,11.10
2019-03-06T12:02:54.193Z,11.10
2019-03-06T12:05:22.272Z,11.10
2019-03-06T12:07:48.993Z,11.10
2019-03-06T12:10:15.703Z,10.80
2019-03-06T12:12:42.486Z,11.10
2019-03-06T12:15:09.448Z,11.10
2019-03-06T12:17:36.501Z,11.10
2019-03-06T12:20:08.222Z,11.10
2019-03-06T12:22:31.497Z,11.20
2019-03-06T12:24:58.081Z,11.20
2019-03-06T12:27:24.823Z,11.10
2019-03-06T12:29:51.743Z,11.20
2019-03-06T12:32:18.773Z,11.20
2019-03-06T12:34:45.710Z,11.20
2019-03-06T12:37:12.452Z,11.20
2019-03-06T12:39:39.242Z,11.20
2019-03-06T12:42:13.932Z,11.20
2019-03-06T12:44:34.594Z,11.20
2019-03-06T12:47:01.191Z,11.20
2019-03-06T12:49:28.187Z,11.20
2019-03-06T12:51:55.300Z,11.20
2019-03-06T12:54:21.940Z,11.20
2019-03-06T12:56:48.632Z,11.20
2019-03-06T12:59:15.234Z,11.20
2019-03-06T13:01:42.391Z,11.30
2019-03-06T13:04:09.023Z,11.30
2019-03-06T13:06:35.625Z,11.30
2019-03-06T13:09:02.299Z,11.30
2019-03-06T13:11:28.900Z,11.30
2019-03-06T13:13:55.974Z,11.30
2019-03-06T13:16:22.704Z,11.30
2019-03-06T13:18:49.334Z,11.30
2019-03-06T13:21:16.520Z,11.30
2019-03-06T13:23:43.204Z,11.30
2019-03-06T13:26:10.735Z,11.30
2019-03-06T13:28:37.714Z,11.30
2019-03-06T13:31:04.326Z,11.50
2019-03-06T13:33:45.173Z,11.30
2019-03-06T13:36:13.687Z,11.40
2019-03-06T13:38:40.346Z,11.40
2019-03-06T13:41:07.084Z,11.10
2019-03-06T13:43:33.704Z,11.40
2019-03-06T13:46:02.332Z,11.40
2019-03-06T13:48:29.014Z,11.40
2019-03-06T13:50:57.598Z,11.40
2019-03-06T13:53:25.406Z,11.40
2019-03-06T13:55:52.112Z,11.40
2019-03-06T13:58:18.796Z,11.40
2019-03-06T14:00:45.492Z,11.40
2019-03-06T14:03:12.076Z,11.40
2019-03-06T14:05:38.760Z,11.40
2019-03-06T14:08:06.524Z,11.40
2019-03-06T14:10:33.395Z,11.40
2019-03-06T14:12:59.988Z,11.40
2019-03-06T14:15:26.640Z,11.40
2019-03-06T14:17:53.479Z,11.40
2019-03-06T14:20:20.934Z,11.40
2019-03-06T14:22:47.627Z,11.40
2019-03-06T14:25:14.361Z,11.40
2019-03-06T14:27:45.108Z,11.40
2019-03-06T14:30:11.724Z,11.40
2019-03-06T14:32:38.681Z,11.40
2019-03-06T14:35:05.465Z,11.40
2019-03-06T14:37:32.017Z,11.40
2019-03-06T14:40:09.075Z,11.50
2019-03-06T14:42:29.747Z,11.50
2019-03-06T14:44:56.703Z,11.50
2019-03-06T14:47:24.575Z,11.50
2019-03-06T14:49:51.179Z,11.50
2019-03-06T14:52:17.771Z,11.30
2019-03-06T14:54:44.437Z,11.50
2019-03-06T14:57:11.489Z,11.50
2019-03-06T14:59:38.125Z,11.50
2019-03-06T15:02:04.927Z,11.50
2019-03-06T15:04:31.717Z,11.50
2019-03-06T15:06:58.319Z,11.50
2019-03-06T15:09:25.054Z,11.60
2019-03-06T15:11:51.796Z,11.60
2019-03-06T15:14:18.529Z,11.60
2019-03-06T15:16:45.249Z,11.60
2019-03-06T15:19:11.824Z,11.60
2019-03-06T15:21:38.811Z,11.60
2019-03-06T15:24:06.594Z,11.60
2019-03-06T15:26:33.660Z,11.60
2019-03-06T15:29:00.291Z,11.60
2019-03-06T15:31:26.914Z,11.60
2019-03-06T15:33:55.387Z,11.60
2019-03-06T15:36:22.009Z,11.60
2019-03-06T15:38:49.057Z,11.60
2019-03-06T15:41:15.931Z,11.70
2019-03-06T15:43:42.683Z,11.70
2019-03-06T15:46:09.305Z,11.70
2019-03-06T15:48:35.969Z,11.70
2019-03-06T15:51:02.589Z,11.70
2019-03-06T15:53:30.671Z,11.70
2019-03-06T15:55:57.258Z,11.70
2019-03-06T15:58:23.881Z,11.70
2019-03-06T16:00:50.751Z,11.70
2019-03-06T16:03:17.363Z,11.70
2019-03-06T16:05:44.068Z,11.70
2019-03-06T16:08:10.756Z,11.50
2019-03-06T16:10:40.669Z,11.70
2019-03-06T16:13:07.435Z,11.70
2019-03-06T16:15:34.177Z,11.70
2019-03-06T16:18:01.148Z,11.70
2019-03-06T16:20:27.764Z,11.70
2019-03-06T16:22:54.332Z,11.70
2019-03-06T16:25:21.083Z,11.70
2019-03-06T16:27:49.652Z,11.70
2019-03-06T16:30:16.678Z,11.80
2019-03-06T16:32:43.289Z,11.80
2019-03-06T16:35:09.905Z,11.80
2019-03-06T16:37:36.521Z,11.80
2019-03-06T16:40:03.497Z,11.80
2019-03-06T16:42:30.409Z,11.80
2019-03-06T16:44:58.534Z,11.80
2019-03-06T16:47:27.126Z,11.80
2019-03-06T16:49:53.804Z,11.80
2019-03-06T16:52:20.438Z,11.80
2019-03-06T16:54:47.025Z,11.80
2019-03-06T16:57:13.637Z,11.80
2019-03-06T16:59:40.295Z,11.80
2019-03-06T17:02:07.096Z,11.80
2019-03-06T17:04:34.439Z,11.80
2019-03-06T17:07:01.012Z,11.80
2019-03-06T17:09:27.555Z,11.80
2019-03-06T17:11:54.160Z,11.80
2019-03-06T17:14:20.828Z,11.90
2019-03-06T17:16:47.517Z,11.90
2019-03-06T17:19:14.070Z,11.90
2019-03-06T17:21:40.918Z,11.90
2019-03-06T17:24:07.448Z,11.90
2019-03-06T17:26:34.161Z,11.90
2019-03-06T17:29:02.007Z,11.90
2019-03-06T17:31:28.630Z,11.90
2019-03-06T17:33:55.196Z,11.90
2019-03-06T17:36:22.850Z,11.90
2019-03-06T17:38:49.442Z,11.90
2019-03-06T17:41:16.051Z,11.90
2019-03-06T17:43:42.942Z,11.90
2019-03-06T17:46:10.163Z,11.90
2019-03-06T17:48:36.739Z,11.90
2019-03-06T17:51:04.892Z,11.90
2019-03-06T17:53:31.760Z,11.90
2019-03-06T17:56:00.128Z,11.90
2019-03-06T17:58:29.411Z,11.90
2019-03-06T18:01:07.620Z,11.90
2019-03-06T18:03:46.723Z,11.90
2019-03-06T18:06:13.405Z,11.90
2019-03-06T18:08:42.513Z,11.90
2019-03-06T18:11:09.376Z,11.90
2019-03-06T18:13:36.397Z,11.90
2019-03-06T18:16:03.283Z,11.60
2019-03-06T18:18:29.897Z,11.90
2019-03-06T18:20:56.694Z,11.60
2019-03-06T18:23:23.485Z,11.90
2019-03-06T18:25:50.616Z,11.90
2019-03-06T18:28:17.220Z,11.90
2019-03-06T18:30:44.191Z,11.90
2019-03-06T18:33:10.960Z,11.90
2019-03-06T18:35:40.129Z,11.90
2019-03-06T18:38:07.099Z,11.90
2019-03-06T18:40:34.796Z,11.90
2019-03-06T18:43:03.188Z,11.90
2019-03-06T18:45:31.878Z,11.90
2019-03-06T18:47:58.624Z,11.90
2019-03-06T18:50:26.602Z,11.90
2019-03-06T18:52:53.236Z,11.90
2019-03-06T18:55:19.938Z,11.90
2019-03-06T18:57:46.638Z,11.90
2019-03-06T19:00:13.559Z,11.90
2019-03-06T19:02:40.257Z,11.90
2019-03-06T19:05:08.828Z,11.90
2019-03-06T19:07:35.550Z,11.90
2019-03-06T19:10:04.909Z,11.90
2019-03-06T19:12:31.581Z,11.90
2019-03-06T19:14:58.552Z,11.90
2019-03-06T19:17:25.490Z,11.90
2019-03-06T19:19:52.443Z,11.50
2019-03-06T19:22:19.143Z,11.90
2019-03-06T19:24:46.102Z,11.90
2019-03-06T19:27:12.986Z,11.90
2019-03-06T19:29:39.706Z,11.90
2019-03-06T19:32:06.291Z,11.90
2019-03-06T19:34:32.893Z,11.90
2019-03-06T19:36:59.789Z,11.90
2019-03-06T19:39:26.423Z,11.90
2019-03-06T19:41:53.005Z,11.90
2019-03-06T19:44:22.008Z,11.90
2019-03-06T19:46:48.665Z,11.90
2019-03-06T19:49:16.473Z,11.90
2019-03-06T19:51:51.329Z,11.90
2019-03-06T19:54:12.939Z,11.90
2019-03-06T19:56:39.585Z,11.90
2019-03-06T19:59:06.272Z,11.90
2019-03-06T20:01:33.453Z,11.80
2019-03-06T20:04:00.132Z,11.90
2019-03-06T20:06:27.451Z,11.90
2019-03-06T20:08:56.610Z,11.80
2019-03-06T20:11:23.267Z,11.80
2019-03-06T20:13:49.867Z,11.80
2019-03-06T20:16:16.499Z,11.80
2019-03-06T20:18:43.227Z,11.80
2019-03-06T20:21:12.840Z,11.80
2019-03-06T20:23:39.492Z,11.80
2019-03-06T20:26:13.835Z,11.80
2019-03-06T20:28:34.594Z,11.80
2019-03-06T20:31:01.502Z,11.80
2019-03-06T20:33:29.984Z,11.80
2019-03-06T20:35:58.296Z,11.60
2019-03-06T20:38:25.087Z,11.80
2019-03-06T20:40:51.854Z,11.80
2019-03-06T20:43:18.594Z,11.80
2019-03-06T20:45:45.360Z,11.80
2019-03-06T20:48:11.924Z,11.80
2019-03-06T20:50:38.628Z,11.80
2019-03-06T20:53:05.576Z,11.80
2019-03-06T20:55:32.373Z,11.80
2019-03-06T20:57:59.344Z,11.80
2019-03-06T21:00:28.545Z,11.80
2019-03-06T21:02:56.413Z,11.80
2019-03-06T21:05:24.716Z,11.80
2019-03-06T21:07:51.407Z,11.80
2019-03-06T21:10:18.039Z,11.80
2019-03-06T21:12:44.686Z,11.80
2019-03-06T21:15:11.543Z,11.80
2019-03-06T21:17:38.164Z,11.70
2019-03-06T21:20:04.740Z,11.70
2019-03-06T21:22:31.950Z,11.70
2019-03-06T21:24:58.645Z,11.80
2019-03-06T21:27:25.423Z,12.00
2019-03-06T21:29:52.519Z,11.70
2019-03-06T21:32:20.594Z,11.70
2019-03-06T21:34:47.162Z,11.70
2019-03-06T21:37:14.271Z,11.70
2019-03-06T21:39:40.859Z,11.70
2019-03-06T21:42:07.542Z,11.40
2019-03-06T21:44:34.472Z,11.70
2019-03-06T21:47:01.243Z,11.70
2019-03-06T21:49:28.151Z,11.70
2019-03-06T21:51:54.937Z,11.70
2019-03-06T21:54:21.549Z,11.70
2019-03-06T21:59:27.589Z,11.60
2019-03-06T22:01:54.217Z,11.70
2019-03-06T22:04:20.907Z,11.70
2019-03-06T22:06:47.543Z,11.70
2019-03-06T22:11:53.937Z,11.60
2019-03-06T22:14:21.302Z,11.70
2019-03-06T22:16:48.053Z,11.70
2019-03-06T22:19:14.810Z,11.70
2019-03-06T22:21:43.285Z,11.70
2019-03-06T22:24:09.889Z,11.70
2019-03-06T22:26:38.317Z,11.70
2019-03-06T22:29:04.917Z,11.70
2019-03-06T22:31:31.631Z,11.70
2019-03-06T22:33:58.261Z,11.70
2019-03-06T22:36:24.911Z,11.70
2019-03-06T22:38:51.780Z,11.70
2019-03-06T22:41:18.720Z,11.60
2019-03-06T22:43:45.452Z,11.60
2019-03-06T22:46:12.254Z,11.60
2019-03-06T22:48:40.505Z,11.60
2019-03-06T22:51:07.059Z,11.60
2019-03-06T22:53:33.688Z,11.60
2019-03-06T22:56:02.177Z,11.60
2019-03-06T22:58:28.998Z,11.60
2019-03-06T23:00:57.279Z,11.60
2019-03-06T23:03:24.312Z,11.60
2019-03-06T23:05:50.868Z,11.60
2019-03-06T23:08:17.529Z,11.60
2019-03-06T23:10:44.288Z,11.60
2019-03-06T23:13:11.012Z,11.60
2019-03-06T23:15:38.028Z,11.60
2019-03-06T23:18:05.810Z,11.60
2019-03-06T23:20:32.373Z,11.60
2019-03-06T23:22:59.382Z,11.60
2019-03-06T23:25:25.987Z,11.60
2019-03-06T23:27:52.651Z,11.60
2019-03-06T23:30:19.378Z,11.50
2019-03-06T23:32:46.226Z,11.50
2019-03-06T23:35:12.957Z,11.50
2019-03-06T23:37:39.708Z,11.60
2019-03-06T23:40:06.358Z,11.50
2019-03-06T23:42:32.948Z,11.50
2019-03-06T23:44:59.628Z,11.50
2019-03-06T23:47:26.265Z,11.50
2019-03-06T23:49:53.251Z,11.50
2019-03-06T23:52:24.793Z,11.50
2019-03-06T23:54:51.498Z,11.50
2019-03-06T23:57:18.100Z,11.50
2019-03-06T23:59:44.767Z,11.50
